Time;durP1;ratioP1;P1;durP2;ratioP2;P2;SDS_P1;SDS_P2;PMS_P1;PMS_P2;Temp;Humidity;BMP_temperature;BMP_pressure;BME280_temperature;BME280_humidity;BME280_pressure;Samples;Min_cycle;Max_cycle;Signal;HPM_P1;HPM_P2
2021/06/08 00:01:29;;;;;;;9.00;4.32;;;;;;;;;;4412700;32;20034;-75
2021/06/08 00:03:55;;;;;;;7.30;4.60;;;;;;;;;;4415003;32;20057;-76
2021/06/08 00:06:21;;;;;;;5.43;4.10;;;;;;;;;;4412482;32;20030;-75
2021/06/08 00:08:47;;;;;;;7.10;5.15;;;;;;;;;;4413956;32;20414;-76
2021/06/08 00:11:16;;;;;;;8.15;5.62;;;;;;;;;;4411630;32;20469;-76
2021/06/08 00:13:42;;;;;;;9.90;6.65;;;;;;;;;;4414457;32;20034;-76
2021/06/08 00:16:08;;;;;;;8.02;6.05;;;;;;;;;;4408473;32;20077;-76
2021/06/08 00:18:34;;;;;;;12.07;6.90;;;;;;;;;;4410866;32;20034;-76
2021/06/08 00:21:00;;;;;;;8.30;5.45;;;;;;;;;;4410100;32;20030;-76
2021/06/08 00:23:26;;;;;;;14.10;6.30;;;;;;;;;;4415907;32;20030;-76
2021/06/08 00:25:53;;;;;;;12.27;7.30;;;;;;;;;;4409240;32;20452;-76
2021/06/08 00:28:19;;;;;;;10.50;6.80;;;;;;;;;;4389939;32;20576;-76
2021/06/08 00:30:45;;;;;;;10.13;6.53;;;;;;;;;;4406679;32;20023;-76
2021/06/08 00:33:11;;;;;;;8.43;6.35;;;;;;;;;;4413144;32;20057;-76
2021/06/08 00:35:37;;;;;;;7.65;5.40;;;;;;;;;;4407251;32;20437;-76
2021/06/08 00:38:03;;;;;;;9.57;5.32;;;;;;;;;;4405978;32;20427;-76
2021/06/08 00:40:30;;;;;;;9.82;5.60;;;;;;;;;;4395693;32;20039;-76
2021/06/08 00:42:56;;;;;;;6.28;4.70;;;;;;;;;;4409489;32;20138;-75
2021/06/08 00:45:23;;;;;;;5.15;4.18;;;;;;;;;;4411993;32;20056;-76
2021/06/08 00:47:49;;;;;;;7.55;4.12;;;;;;;;;;4412208;32;20038;-76
2021/06/08 00:50:16;;;;;;;6.05;3.85;;;;;;;;;;4407975;32;20097;-76
2021/06/08 00:52:42;;;;;;;6.50;3.60;;;;;;;;;;4409850;32;20054;-76
2021/06/08 00:55:10;;;;;;;5.30;3.70;;;;;;;;;;4411732;32;20050;-75
2021/06/08 00:57:37;;;;;;;6.70;3.90;;;;;;;;;;4411499;32;20074;-76
2021/06/08 01:00:04;;;;;;;4.72;3.78;;;;;;;;;;4412678;32;20034;-76
2021/06/08 01:02:31;;;;;;;7.40;3.67;;;;;;;;;;4412382;32;20030;-77
2021/06/08 01:04:57;;;;;;;16.23;4.80;;;;;;;;;;4410624;32;20578;-76
2021/06/08 01:07:23;;;;;;;7.70;3.60;;;;;;;;;;4396510;32;20733;-75
2021/06/08 01:09:51;;;;;;;7.10;3.53;;;;;;;;;;4401198;32;20035;-75
2021/06/08 01:12:17;;;;;;;5.97;3.75;;;;;;;;;;4408219;32;20116;-76
2021/06/08 01:14:43;;;;;;;7.37;3.42;;;;;;;;;;4403476;32;20357;-76
2021/06/08 01:17:09;;;;;;;5.43;3.22;;;;;;;;;;4396108;32;20507;-76
2021/06/08 01:19:37;;;;;;;10.05;3.55;;;;;;;;;;4402971;32;20513;-76
2021/06/08 01:22:03;;;;;;;4.32;3.33;;;;;;;;;;4409700;32;20104;-76
2021/06/08 01:24:30;;;;;;;5.97;3.72;;;;;;;;;;4408889;32;20056;-76
2021/06/08 01:26:56;;;;;;;3.35;3.00;;;;;;;;;;4410148;32;20061;-77
2021/06/08 01:29:23;;;;;;;4.12;3.40;;;;;;;;;;4410776;32;20042;-76
2021/06/08 01:31:50;;;;;;;8.40;3.47;;;;;;;;;;4402621;32;20099;-76
2021/06/08 01:34:16;;;;;;;5.72;2.83;;;;;;;;;;4406798;32;20669;-76
2021/06/08 01:36:43;;;;;;;5.07;3.33;;;;;;;;;;4404020;32;20060;-76
2021/06/08 01:39:09;;;;;;;6.87;3.50;;;;;;;;;;4403382;32;20034;-76
2021/06/08 01:41:37;;;;;;;5.10;3.28;;;;;;;;;;4392124;32;20034;-76
2021/06/08 01:44:03;;;;;;;5.95;3.42;;;;;;;;;;4402998;32;20166;-76
2021/06/08 01:46:29;;;;;;;6.30;3.70;;;;;;;;;;4403936;32;20419;-76
2021/06/08 01:48:56;;;;;;;6.15;3.45;;;;;;;;;;4394600;32;20037;-82
2021/06/08 01:51:25;;;;;;;4.78;3.35;;;;;;;;;;4411027;32;20098;-77
2021/06/08 01:54:10;;;;;;;5.43;3.55;;;;;;;;;;4404856;32;20109;-76
2021/06/08 01:56:37;;;;;;;6.80;3.42;;;;;;;;;;4409446;32;20074;-76
2021/06/08 01:59:11;;;;;;;5.43;3.20;;;;;;;;;;4408606;32;20050;-76
2021/06/08 02:01:47;;;;;;;8.30;3.65;;;;;;;;;;4394279;32;20046;-76
2021/06/08 02:04:24;;;;;;;5.32;3.50;;;;;;;;;;4406151;32;20041;-76
2021/06/08 02:06:53;;;;;;;5.50;3.65;;;;;;;;;;4410625;32;20952;-76
2021/06/08 02:09:21;;;;;;;4.35;3.85;;;;;;;;;;4394989;32;20072;-76
2021/06/08 02:11:57;;;;;;;8.98;3.30;;;;;;;;;;4412225;32;20439;-76
2021/06/08 02:14:59;;;;;;;6.82;3.12;;;;;;;;;;4403729;32;20060;-76
2021/06/08 02:17:37;;;;;;;4.43;3.20;;;;;;;;;;4343629;33;20643;-76
2021/06/08 02:20:06;;;;;;;5.05;3.37;;;;;;;;;;4393300;32;20057;-76
2021/06/08 02:22:36;;;;;;;6.68;3.53;;;;;;;;;;4403418;32;20034;-76
2021/06/08 02:25:03;;;;;;;6.68;3.33;;;;;;;;;;4406945;32;20050;-76
2021/06/08 02:27:29;;;;;;;4.68;3.33;;;;;;;;;;4407372;32;20098;-77
2021/06/08 02:29:56;;;;;;;11.85;3.70;;;;;;;;;;4406930;32;20101;-76
2021/06/08 02:32:23;;;;;;;7.72;3.45;;;;;;;;;;4407447;32;20034;-76
2021/06/08 02:34:49;;;;;;;5.45;3.50;;;;;;;;;;4402209;32;20039;-76
2021/06/08 02:37:17;;;;;;;6.75;4.07;;;;;;;;;;4405015;32;20453;-76
2021/06/08 02:39:44;;;;;;;6.68;3.45;;;;;;;;;;4396430;32;20451;-76
2021/06/08 02:42:12;;;;;;;9.45;3.35;;;;;;;;;;4406163;32;20035;-76
2021/06/08 02:44:38;;;;;;;5.20;3.30;;;;;;;;;;4406720;32;20046;-77
2021/06/08 02:47:05;;;;;;;9.13;4.30;;;;;;;;;;4391723;32;20073;-76
2021/06/08 02:49:32;;;;;;;9.35;4.22;;;;;;;;;;4406223;32;20061;-76
2021/06/08 02:51:59;;;;;;;6.90;3.62;;;;;;;;;;4406219;32;20504;-76
2021/06/08 02:54:26;;;;;;;7.78;3.60;;;;;;;;;;4408134;32;20088;-76
2021/06/08 02:56:52;;;;;;;5.62;3.65;;;;;;;;;;4408751;32;20038;-76
2021/06/08 02:59:18;;;;;;;8.18;3.87;;;;;;;;;;4405864;32;20080;-77
2021/06/08 03:01:48;;;;;;;9.15;4.12;;;;;;;;;;4393190;32;20038;-77
2021/06/08 03:04:16;;;;;;;7.65;3.83;;;;;;;;;;4394615;32;20050;-76
2021/06/08 03:06:48;;;;;;;5.60;3.42;;;;;;;;;;4406530;32;20034;-76
2021/06/08 03:09:16;;;;;;;8.43;4.78;;;;;;;;;;4407166;32;20038;-76
2021/06/08 03:11:44;;;;;;;4.80;3.58;;;;;;;;;;4406312;32;20055;-76
2021/06/08 03:14:12;;;;;;;8.30;4.03;;;;;;;;;;4410132;32;20054;-76
2021/06/08 03:16:41;;;;;;;10.40;3.60;;;;;;;;;;4408490;32;20071;-77
2021/06/08 03:19:08;;;;;;;4.75;3.53;;;;;;;;;;4404554;32;20057;-76
2021/06/08 03:21:37;;;;;;;5.75;3.62;;;;;;;;;;4396975;32;20072;-76
2021/06/08 03:24:05;;;;;;;4.70;3.47;;;;;;;;;;4398017;32;20069;-77
2021/06/08 03:26:35;;;;;;;5.62;3.90;;;;;;;;;;4397161;32;20328;-76
2021/06/08 03:29:01;;;;;;;8.98;3.62;;;;;;;;;;4398799;32;20077;-76
2021/06/08 03:31:28;;;;;;;7.03;4.12;;;;;;;;;;4380960;32;20038;-76
2021/06/08 03:33:54;;;;;;;7.32;4.12;;;;;;;;;;4398078;32;20039;-76
2021/06/08 03:36:21;;;;;;;7.97;4.10;;;;;;;;;;4396966;32;20064;-76
2021/06/08 03:38:48;;;;;;;8.05;3.85;;;;;;;;;;4395662;32;20067;-77
2021/06/08 03:41:14;;;;;;;5.50;4.03;;;;;;;;;;4398349;32;20529;-76
2021/06/08 03:43:41;;;;;;;6.35;3.87;;;;;;;;;;4396769;32;20104;-76
2021/06/08 03:46:07;;;;;;;6.82;4.15;;;;;;;;;;4396448;32;20069;-76
2021/06/08 03:48:33;;;;;;;7.93;3.97;;;;;;;;;;4395765;32;20096;-76
2021/06/08 03:51:00;;;;;;;6.10;4.07;;;;;;;;;;4396650;32;20081;-76
2021/06/08 03:53:26;;;;;;;6.43;3.90;;;;;;;;;;4396056;32;20096;-77
2021/06/08 03:55:53;;;;;;;7.47;4.22;;;;;;;;;;4396887;32;20042;-76
2021/06/08 03:58:20;;;;;;;5.43;4.12;;;;;;;;;;4382911;32;20359;-76
2021/06/08 04:00:47;;;;;;;8.00;4.47;;;;;;;;;;4382263;32;20116;-77
2021/06/08 04:03:14;;;;;;;6.20;4.20;;;;;;;;;;4397774;32;20057;-76
2021/06/08 04:05:41;;;;;;;6.30;3.67;;;;;;;;;;4396832;32;20109;-76
2021/06/08 04:08:09;;;;;;;6.82;3.90;;;;;;;;;;4396009;32;20062;-76
2021/06/08 04:10:36;;;;;;;8.02;4.00;;;;;;;;;;4397799;32;20034;-76
2021/06/08 04:13:06;;;;;;;3.58;3.12;;;;;;;;;;4396824;32;20050;-77
2021/06/08 04:15:32;;;;;;;8.13;4.18;;;;;;;;;;4405632;32;20050;-76
2021/06/08 04:17:59;;;;;;;11.88;4.43;;;;;;;;;;4394341;32;20383;-76
2021/06/08 04:20:28;;;;;;;6.03;4.30;;;;;;;;;;4397481;32;20030;-76
2021/06/08 04:22:56;;;;;;;7.12;4.45;;;;;;;;;;4396497;32;20038;-76
2021/06/08 04:25:23;;;;;;;6.72;3.62;;;;;;;;;;4396299;32;20077;-76
2021/06/08 04:27:49;;;;;;;5.87;3.97;;;;;;;;;;4385121;32;20106;-76
2021/06/08 04:30:16;;;;;;;6.40;3.90;;;;;;;;;;4383008;32;20105;-76
2021/06/08 04:32:42;;;;;;;6.55;3.78;;;;;;;;;;4395852;32;20064;-76
2021/06/08 04:35:09;;;;;;;5.97;3.80;;;;;;;;;;4395738;32;20064;-76
2021/06/08 04:37:35;;;;;;;4.37;3.83;;;;;;;;;;4394154;32;20058;-76
2021/06/08 04:40:02;;;;;;;7.72;5.03;;;;;;;;;;4397028;32;20062;-76
2021/06/08 04:42:28;;;;;;;11.00;5.03;;;;;;;;;;4396037;32;20039;-76
2021/06/08 04:44:54;;;;;;;7.80;3.90;;;;;;;;;;4395697;32;20099;-76
2021/06/08 04:47:21;;;;;;;9.25;4.30;;;;;;;;;;4396687;32;20090;-76
2021/06/08 04:49:48;;;;;;;7.97;4.35;;;;;;;;;;4394532;32;20489;-76
2021/06/08 04:52:14;;;;;;;6.95;4.60;;;;;;;;;;4396716;32;20042;-76
2021/06/08 04:54:41;;;;;;;8.77;4.07;;;;;;;;;;4396636;32;20454;-75
2021/06/08 04:57:10;;;;;;;9.20;4.12;;;;;;;;;;4395532;32;20042;-75
2021/06/08 04:59:36;;;;;;;11.82;4.82;;;;;;;;;;4381658;32;20074;-76
2021/06/08 05:02:08;;;;;;;8.52;4.03;;;;;;;;;;4395046;32;20035;-75
2021/06/08 05:04:34;;;;;;;5.57;3.83;;;;;;;;;;4402850;32;20072;-75
2021/06/08 05:07:03;;;;;;;8.75;4.70;;;;;;;;;;4380995;32;20734;-76
2021/06/08 05:09:31;;;;;;;12.30;4.85;;;;;;;;;;4395925;32;20109;-75
2021/06/08 05:12:01;;;;;;;5.37;4.00;;;;;;;;;;4395059;32;20062;-75
2021/06/08 05:14:31;;;;;;;7.03;3.92;;;;;;;;;;4405037;32;20087;-75
2021/06/08 05:16:58;;;;;;;6.62;4.60;;;;;;;;;;4405344;32;20049;-76
2021/06/08 05:19:25;;;;;;;6.22;5.32;;;;;;;;;;4394666;32;20062;-75
2021/06/08 05:21:51;;;;;;;12.15;5.43;;;;;;;;;;4382334;32;20122;-76
2021/06/08 05:24:18;;;;;;;9.10;5.43;;;;;;;;;;4380940;32;20660;-75
2021/06/08 05:26:48;;;;;;;6.55;3.90;;;;;;;;;;4394854;32;20126;-75
2021/06/08 05:29:18;;;;;;;6.47;4.28;;;;;;;;;;4402969;32;20087;-75
2021/06/08 05:31:45;;;;;;;7.95;4.37;;;;;;;;;;4395170;32;20043;-76
2021/06/08 05:34:12;;;;;;;9.82;3.90;;;;;;;;;;4381781;32;20069;-75
2021/06/08 05:36:39;;;;;;;6.32;4.10;;;;;;;;;;4380961;32;20042;-75
2021/06/08 05:39:06;;;;;;;7.55;4.80;;;;;;;;;;4394443;32;20290;-75
2021/06/08 05:41:33;;;;;;;11.77;5.20;;;;;;;;;;4378963;32;20073;-75
2021/06/08 05:43:59;;;;;;;10.20;4.50;;;;;;;;;;4394851;32;20030;-75
2021/06/08 05:46:32;;;;;;;11.38;4.93;;;;;;;;;;4395958;32;20586;-75
2021/06/08 05:48:58;;;;;;;9.68;5.00;;;;;;;;;;4397214;32;20047;-75
2021/06/08 05:51:24;;;;;;;6.82;4.60;;;;;;;;;;4393676;32;20042;-75
2021/06/08 05:53:51;;;;;;;8.55;5.03;;;;;;;;;;4395980;32;20034;-75
2021/06/08 05:56:18;;;;;;;8.00;5.07;;;;;;;;;;4394218;32;20045;-75
2021/06/08 05:58:44;;;;;;;5.87;4.40;;;;;;;;;;4380510;32;20105;-76
2021/06/08 06:01:11;;;;;;;10.40;5.07;;;;;;;;;;4394067;32;20785;-75
2021/06/08 06:03:38;;;;;;;8.20;4.90;;;;;;;;;;4405323;32;20073;-76
2021/06/08 06:06:04;;;;;;;13.77;7.30;;;;;;;;;;4406455;32;20101;-76
2021/06/08 06:08:32;;;;;;;16.70;8.23;;;;;;;;;;4406373;32;20056;-75
2021/06/08 06:11:05;;;;;;;12.02;7.30;;;;;;;;;;4389084;32;20083;-74
2021/06/08 06:13:39;;;;;;;13.27;5.68;;;;;;;;;;4400321;32;20042;-74
2021/06/08 06:16:07;;;;;;;12.43;7.43;;;;;;;;;;4386719;32;20054;-75
2021/06/08 06:18:33;;;;;;;10.02;6.30;;;;;;;;;;4404875;32;20101;-75
2021/06/08 06:21:00;;;;;;;13.68;7.22;;;;;;;;;;4404939;32;20068;-75
2021/06/08 06:23:26;;;;;;;13.93;7.65;;;;;;;;;;4405383;32;20034;-75
2021/06/08 06:25:53;;;;;;;10.57;6.12;;;;;;;;;;4403058;32;20034;-76
2021/06/08 06:28:20;;;;;;;13.38;7.05;;;;;;;;;;4403768;32;20041;-75
2021/06/08 06:30:47;;;;;;;19.15;8.05;;;;;;;;;;4406569;32;20102;-75
2021/06/08 06:33:13;;;;;;;13.98;8.40;;;;;;;;;;4391374;32;20101;-75
2021/06/08 06:35:40;;;;;;;11.65;7.32;;;;;;;;;;4385711;32;20414;-75
2021/06/08 06:38:07;;;;;;;10.82;6.35;;;;;;;;;;4402437;32;20232;-75
2021/06/08 06:40:35;;;;;;;13.23;6.60;;;;;;;;;;4403666;32;20051;-75
2021/06/08 06:43:03;;;;;;;11.27;5.62;;;;;;;;;;4402437;32;20491;-75
2021/06/08 06:45:33;;;;;;;11.90;5.37;;;;;;;;;;4402553;32;20071;-76
2021/06/08 06:48:03;;;;;;;6.87;4.90;;;;;;;;;;4404543;32;20031;-75
2021/06/08 06:50:37;;;;;;;10.07;4.97;;;;;;;;;;4388315;32;20078;-75
2021/06/08 06:53:04;;;;;;;11.12;5.07;;;;;;;;;;4380052;32;20537;-75
2021/06/08 06:55:32;;;;;;;11.63;6.00;;;;;;;;;;4381788;32;20066;-75
2021/06/08 06:57:58;;;;;;;6.82;5.07;;;;;;;;;;4397245;32;20084;-75
2021/06/08 07:00:26;;;;;;;10.82;6.10;;;;;;;;;;4398636;32;20163;-75
2021/06/08 07:02:53;;;;;;;13.13;5.07;;;;;;;;;;4397669;32;20077;-75
2021/06/08 07:05:21;;;;;;;7.85;5.28;;;;;;;;;;4397277;32;20042;-75
2021/06/08 14:56:09;;;;;;;5.95;3.60;;;;;;;;;;4454573;32;244175;-75
2021/06/08 14:58:35;;;;;;;6.55;3.78;;;;;;;;;;4464236;32;20048;-75
2021/06/08 15:01:01;;;;;;;6.90;3.50;;;;;;;;;;4464463;32;20017;-75
2021/06/08 15:03:27;;;;;;;5.30;3.53;;;;;;;;;;4453129;32;20352;-75
2021/06/08 15:05:56;;;;;;;8.82;3.72;;;;;;;;;;4437331;32;20029;-75
2021/06/08 15:08:22;;;;;;;4.95;3.20;;;;;;;;;;4440567;32;20038;-75
2021/06/08 15:10:48;;;;;;;7.32;3.53;;;;;;;;;;4446428;32;20154;-75
2021/06/08 15:13:14;;;;;;;7.70;4.05;;;;;;;;;;4446312;32;20025;-76
2021/06/08 15:15:41;;;;;;;10.07;3.87;;;;;;;;;;4436451;32;20392;-75
2021/06/08 15:18:08;;;;;;;8.10;4.90;;;;;;;;;;4452067;32;20053;-80
2021/06/08 15:20:34;;;;;;;9.40;4.37;;;;;;;;;;4451540;32;20055;-76
2021/06/08 15:23:00;;;;;;;6.93;3.40;;;;;;;;;;4441160;32;20121;-75
2021/06/08 15:25:30;;;;;;;6.10;3.75;;;;;;;;;;4452601;32;20036;-76
2021/06/08 15:27:56;;;;;;;9.40;4.45;;;;;;;;;;4454119;32;20041;-75
2021/06/08 15:30:23;;;;;;;5.28;3.45;;;;;;;;;;4451032;32;20029;-75
2021/06/08 15:32:49;;;;;;;6.28;3.87;;;;;;;;;;4451938;32;20099;-76
2021/06/08 15:35:15;;;;;;;10.95;3.30;;;;;;;;;;4452464;32;20411;-84
2021/06/08 15:37:41;;;;;;;9.25;4.37;;;;;;;;;;4444018;32;20506;-80
2021/06/08 15:40:08;;;;;;;8.15;4.10;;;;;;;;;;4449470;32;20060;-76
2021/06/08 15:42:34;;;;;;;9.93;3.70;;;;;;;;;;4452675;32;20028;-76
2021/06/08 15:45:01;;;;;;;6.05;3.70;;;;;;;;;;4452816;32;20146;-79
2021/06/08 15:47:27;;;;;;;6.93;3.37;;;;;;;;;;4435026;32;20053;-77
2021/06/08 15:49:53;;;;;;;4.95;3.92;;;;;;;;;;4433589;32;20687;-75
2021/06/08 15:52:19;;;;;;;8.25;4.30;;;;;;;;;;4436438;32;20068;-81
2021/06/08 15:54:46;;;;;;;7.57;2.95;;;;;;;;;;4435898;32;20090;-75
2021/06/08 15:57:12;;;;;;;8.25;4.10;;;;;;;;;;4426122;32;20049;-75
2021/06/08 15:59:38;;;;;;;7.07;3.67;;;;;;;;;;4429761;32;20029;-77
2021/06/08 16:02:05;;;;;;;5.43;3.58;;;;;;;;;;4426325;32;20030;-77
2021/06/08 16:04:31;;;;;;;15.27;3.62;;;;;;;;;;4426431;32;20055;-77
2021/06/08 16:06:57;;;;;;;7.22;3.60;;;;;;;;;;4425213;32;20065;-75
2021/06/08 16:09:24;;;;;;;10.30;4.20;;;;;;;;;;4426228;32;20041;-74
2021/06/08 16:11:50;;;;;;;7.12;3.65;;;;;;;;;;4425688;32;20091;-77
2021/06/08 16:14:16;;;;;;;8.15;4.20;;;;;;;;;;4425969;32;20134;-75
2021/06/08 16:16:42;;;;;;;6.05;3.65;;;;;;;;;;4425822;32;20041;-75
2021/06/08 16:19:09;;;;;;;8.30;3.72;;;;;;;;;;4423561;32;20462;-75
2021/06/08 16:21:35;;;;;;;5.22;3.40;;;;;;;;;;4425317;32;20034;-75
2021/06/08 16:24:01;;;;;;;5.28;3.58;;;;;;;;;;4415822;32;20077;-75
2021/06/08 16:26:28;;;;;;;4.53;3.33;;;;;;;;;;4393321;32;20057;-76
2021/06/08 16:28:54;;;;;;;4.65;3.33;;;;;;;;;;4423687;32;20731;-75
2021/06/08 16:31:20;;;;;;;4.28;3.05;;;;;;;;;;4424013;32;20026;-75
2021/06/08 16:33:46;;;;;;;8.60;3.60;;;;;;;;;;4413614;32;20658;-75
2021/06/08 16:36:12;;;;;;;7.70;3.33;;;;;;;;;;4424986;32;20116;-75
2021/06/08 16:38:39;;;;;;;5.12;3.60;;;;;;;;;;4410319;32;20033;-75
2021/06/08 16:41:05;;;;;;;7.50;3.40;;;;;;;;;;4421726;32;20083;-76
2021/06/08 16:43:33;;;;;;;7.57;3.50;;;;;;;;;;4407409;32;20086;-79
2021/06/08 16:45:59;;;;;;;4.35;3.40;;;;;;;;;;4351426;32;20042;-75
2021/06/08 16:48:27;;;;;;;7.53;3.62;;;;;;;;;;4397351;32;20402;-74
2021/06/08 16:53:32;;;;;;;5.35;3.35;;;;;;;;;;4373103;32;20037;-74
2021/06/08 16:55:58;;;;;;;3.62;2.80;;;;;;;;;;4404374;32;20098;-75
2021/06/08 16:58:25;;;;;;;5.40;3.55;;;;;;;;;;4425117;32;20056;-75
2021/06/08 17:00:51;;;;;;;6.70;3.47;;;;;;;;;;4419316;32;20038;-75
2021/06/08 17:03:18;;;;;;;3.78;3.15;;;;;;;;;;4378413;32;20443;-75
2021/06/08 17:05:44;;;;;;;6.35;3.53;;;;;;;;;;4426060;32;20049;-74
2021/06/08 17:08:11;;;;;;;6.18;3.70;;;;;;;;;;4407040;32;20029;-75
2021/06/08 17:10:37;;;;;;;9.07;3.45;;;;;;;;;;4425090;32;20368;-75
2021/06/08 17:13:04;;;;;;;4.57;3.75;;;;;;;;;;4423524;32;20029;-75
2021/06/08 17:15:30;;;;;;;6.82;3.92;;;;;;;;;;4425150;32;20092;-74
2021/06/08 17:17:56;;;;;;;6.10;3.62;;;;;;;;;;4327508;32;20279;-75
2021/06/08 17:20:23;;;;;;;5.53;4.32;;;;;;;;;;4424773;32;20378;-75
2021/06/08 17:22:49;;;;;;;7.03;4.20;;;;;;;;;;4334770;32;20086;-74
2021/06/08 17:25:16;;;;;;;5.45;3.65;;;;;;;;;;4424927;32;20109;-74
2021/06/08 17:27:43;;;;;;;9.68;3.58;;;;;;;;;;4385102;32;20112;-74
2021/06/08 17:30:09;;;;;;;6.40;3.53;;;;;;;;;;4424638;32;20549;-74
2021/06/08 17:32:36;;;;;;;8.63;3.87;;;;;;;;;;4423078;32;20037;-74
2021/06/08 17:35:03;;;;;;;12.20;4.07;;;;;;;;;;4413164;32;20105;-75
2021/06/08 17:37:29;;;;;;;9.48;3.85;;;;;;;;;;4421802;32;20057;-76
2021/06/08 17:39:55;;;;;;;7.53;3.72;;;;;;;;;;4419430;32;20042;-74
2021/06/08 17:42:22;;;;;;;7.80;3.30;;;;;;;;;;4354661;32;20097;-75
2021/06/08 17:44:48;;;;;;;4.70;3.62;;;;;;;;;;4401421;32;20519;-76
2021/06/08 17:47:14;;;;;;;51.50;6.60;;;;;;;;;;4422549;32;20037;-74
2021/06/08 17:49:41;;;;;;;10.55;3.72;;;;;;;;;;4410686;32;20488;-75
2021/06/08 17:52:07;;;;;;;8.52;3.33;;;;;;;;;;4428022;32;20041;-74
2021/06/08 17:54:33;;;;;;;6.35;3.20;;;;;;;;;;4428135;32;20080;-77
2021/06/08 17:57:00;;;;;;;9.35;3.58;;;;;;;;;;4431741;32;20438;-74
2021/06/08 17:59:26;;;;;;;3.97;3.58;;;;;;;;;;4434973;32;20546;-75
2021/06/08 18:01:52;;;;;;;7.43;3.35;;;;;;;;;;4422342;32;20076;-76
2021/06/08 18:04:19;;;;;;;10.50;4.03;;;;;;;;;;4432448;32;20033;-74
2021/06/08 18:06:52;;;;;;;11.93;7.45;;;;;;;;;;4433206;32;20038;-76
2021/06/08 18:09:19;;;;;;;8.57;4.80;;;;;;;;;;4433183;32;20033;-75
2021/06/08 18:11:45;;;;;;;6.75;3.85;;;;;;;;;;4397205;32;20034;-76
2021/06/08 18:14:11;;;;;;;7.50;4.07;;;;;;;;;;4404370;32;20042;-78
2021/06/08 18:16:40;;;;;;;9.02;3.55;;;;;;;;;;4305770;32;20466;-78
2021/06/08 18:21:40;;;;;;;4.65;3.12;;;;;;;;;;4417887;32;20068;-76
2021/06/08 18:24:07;;;;;;;5.50;3.40;;;;;;;;;;4422801;32;20026;-77
2021/06/08 18:26:34;;;;;;;9.40;3.72;;;;;;;;;;4419643;32;20088;-74
2021/06/08 18:29:00;;;;;;;3.45;2.75;;;;;;;;;;4418988;32;20073;-79
2021/06/08 18:31:26;;;;;;;4.82;3.55;;;;;;;;;;4422395;32;20055;-74
2021/06/08 18:33:53;;;;;;;7.97;3.40;;;;;;;;;;4431092;32;20076;-74
2021/06/08 18:36:20;;;;;;;6.05;3.53;;;;;;;;;;4415728;32;20655;-74
2021/06/08 18:38:46;;;;;;;6.30;3.60;;;;;;;;;;4425579;32;20117;-72
2021/06/08 18:41:13;;;;;;;6.15;3.45;;;;;;;;;;4422676;32;20056;-75
2021/06/08 18:43:39;;;;;;;8.50;4.25;;;;;;;;;;4422112;32;20112;-73
2021/06/08 18:46:05;;;;;;;8.02;4.40;;;;;;;;;;4422884;32;20033;-73
2021/06/08 18:48:31;;;;;;;56.50;23.27;;;;;;;;;;4419581;32;20033;-74
2021/06/08 18:50:58;;;;;;;41.22;15.60;;;;;;;;;;4422990;32;20064;-74
2021/06/08 18:53:24;;;;;;;10.30;6.03;;;;;;;;;;4418235;32;20026;-72
2021/06/08 18:55:51;;;;;;;9.13;5.20;;;;;;;;;;4421014;32;20123;-73
2021/06/08 18:58:18;;;;;;;7.43;6.00;;;;;;;;;;4422092;32;20063;-74
2021/06/08 19:00:45;;;;;;;7.70;4.80;;;;;;;;;;4415845;32;20159;-72
2021/06/08 19:03:11;;;;;;;9.15;4.68;;;;;;;;;;4409172;32;20042;-75
2021/06/08 19:05:38;;;;;;;9.77;5.43;;;;;;;;;;4415300;32;20167;-74
2021/06/08 19:08:05;;;;;;;6.70;5.18;;;;;;;;;;4420079;32;20102;-74
2021/06/08 19:10:31;;;;;;;9.20;5.90;;;;;;;;;;4423515;32;20037;-73
2021/06/08 19:12:58;;;;;;;7.72;5.57;;;;;;;;;;4418036;32;20096;-73
2021/06/08 19:15:25;;;;;;;6.47;4.28;;;;;;;;;;4417508;32;20063;-73
2021/06/08 19:17:51;;;;;;;7.22;4.40;;;;;;;;;;4419194;32;20057;-74
2021/06/08 19:20:18;;;;;;;8.20;4.47;;;;;;;;;;4417605;32;20389;-73
2021/06/08 19:22:45;;;;;;;8.25;4.90;;;;;;;;;;4422329;32;20034;-73
2021/06/08 19:25:11;;;;;;;7.90;5.32;;;;;;;;;;4416147;32;20372;-74
2021/06/08 19:27:38;;;;;;;8.38;6.00;;;;;;;;;;4423662;32;20038;-74
2021/06/08 19:30:05;;;;;;;7.60;5.05;;;;;;;;;;4418719;32;20065;-75
2021/06/08 19:32:32;;;;;;;7.05;5.07;;;;;;;;;;4420368;32;20061;-73
2021/06/08 19:35:00;;;;;;;9.00;5.43;;;;;;;;;;4423229;32;20102;-73
2021/06/08 19:37:26;;;;;;;5.47;4.15;;;;;;;;;;4424223;32;20038;-74
2021/06/08 19:39:53;;;;;;;6.75;4.20;;;;;;;;;;4420686;32;20592;-73
2021/06/08 19:42:19;;;;;;;5.57;3.67;;;;;;;;;;4419869;32;20042;-73
2021/06/08 19:44:45;;;;;;;5.70;3.47;;;;;;;;;;4424829;32;20476;-74
2021/06/08 19:47:12;;;;;;;7.78;4.00;;;;;;;;;;4425588;32;20056;-74
2021/06/08 19:49:38;;;;;;;7.10;3.53;;;;;;;;;;4426586;32;20086;-73
2021/06/08 19:52:05;;;;;;;6.25;4.80;;;;;;;;;;4425135;32;20038;-73
2021/06/08 19:54:31;;;;;;;6.35;3.83;;;;;;;;;;4425948;32;20617;-73
2021/06/08 19:56:57;;;;;;;5.68;3.60;;;;;;;;;;4425536;32;20060;-73
2021/06/08 19:59:24;;;;;;;6.75;5.05;;;;;;;;;;4419004;32;20443;-73
2021/06/08 20:01:51;;;;;;;6.45;4.53;;;;;;;;;;4418379;32;20129;-75
2021/06/08 20:04:18;;;;;;;5.82;4.43;;;;;;;;;;4413777;32;20026;-74
2021/06/08 20:06:44;;;;;;;10.88;4.93;;;;;;;;;;4419644;32;20061;-73
2021/06/08 20:09:11;;;;;;;7.05;4.22;;;;;;;;;;4424256;32;20057;-74
2021/06/08 20:11:42;;;;;;;5.32;3.65;;;;;;;;;;4425942;32;20071;-74
2021/06/08 20:14:08;;;;;;;6.05;3.60;;;;;;;;;;4424780;32;20219;-74
2021/06/08 20:16:35;;;;;;;6.53;3.40;;;;;;;;;;4421651;32;20033;-73
2021/06/08 20:19:01;;;;;;;6.25;3.67;;;;;;;;;;4426091;32;20042;-74
2021/06/08 20:21:27;;;;;;;4.15;3.40;;;;;;;;;;4425542;32;20064;-73
2021/06/08 20:23:55;;;;;;;7.65;3.70;;;;;;;;;;4424316;32;20158;-74
2021/06/08 20:26:21;;;;;;;5.55;3.17;;;;;;;;;;4422286;32;20112;-74
2021/06/08 20:28:47;;;;;;;6.47;3.55;;;;;;;;;;4423447;32;20383;-73
2021/06/08 20:31:15;;;;;;;4.93;3.22;;;;;;;;;;4424587;32;20089;-73
2021/06/08 20:33:41;;;;;;;5.72;3.53;;;;;;;;;;4425327;32;20052;-73
2021/06/08 20:36:07;;;;;;;4.95;3.55;;;;;;;;;;4418820;32;20295;-74
2021/06/08 20:38:34;;;;;;;6.37;3.85;;;;;;;;;;4425685;32;20113;-74
2021/06/08 20:41:00;;;;;;;4.22;3.12;;;;;;;;;;4417240;32;20061;-74
2021/06/08 20:43:26;;;;;;;7.15;3.10;;;;;;;;;;4423311;32;20059;-74
2021/06/08 20:45:53;;;;;;;5.60;3.05;;;;;;;;;;4425564;32;20053;-74
2021/06/08 20:48:23;;;;;;;8.10;3.20;;;;;;;;;;4421927;32;20079;-74
2021/06/08 20:50:49;;;;;;;5.07;3.28;;;;;;;;;;4422798;32;20131;-73
2021/06/08 20:53:15;;;;;;;5.97;3.10;;;;;;;;;;4424327;32;20106;-74
2021/06/08 20:55:41;;;;;;;3.85;3.10;;;;;;;;;;4424929;32;20057;-76
2021/06/08 20:58:08;;;;;;;8.13;3.15;;;;;;;;;;4416818;32;20038;-73
2021/06/08 21:00:34;;;;;;;3.75;2.60;;;;;;;;;;4423874;32;20038;-74
2021/06/08 21:03:00;;;;;;;5.40;3.53;;;;;;;;;;4420617;32;20389;-74
2021/06/08 21:05:29;;;;;;;3.92;3.08;;;;;;;;;;4419376;32;20516;-74
2021/06/08 21:07:55;;;;;;;7.72;2.95;;;;;;;;;;4424779;32;20037;-74
2021/06/08 21:10:21;;;;;;;5.20;3.22;;;;;;;;;;4425664;32;20893;-75
2021/06/08 21:12:47;;;;;;;5.15;3.33;;;;;;;;;;4421872;32;20030;-75
2021/06/08 21:15:14;;;;;;;5.22;3.05;;;;;;;;;;4420764;32;20116;-77
2021/06/08 21:17:40;;;;;;;10.85;3.67;;;;;;;;;;4422301;32;20091;-75
2021/06/08 21:20:07;;;;;;;5.03;3.30;;;;;;;;;;4421603;32;20034;-76
2021/06/08 21:22:33;;;;;;;3.60;3.28;;;;;;;;;;4425234;32;20509;-75
2021/06/08 21:24:59;;;;;;;3.80;2.95;;;;;;;;;;4422670;32;20049;-76
2021/06/08 21:27:25;;;;;;;3.53;2.90;;;;;;;;;;4425092;32;20462;-76
2021/06/08 21:29:51;;;;;;;5.05;2.62;;;;;;;;;;4416406;32;20108;-74
2021/06/08 21:32:18;;;;;;;7.22;3.67;;;;;;;;;;4423597;32;20037;-74
2021/06/08 21:34:44;;;;;;;3.92;2.80;;;;;;;;;;4424280;32;20508;-75
2021/06/08 21:37:10;;;;;;;6.72;2.80;;;;;;;;;;4422042;32;20093;-74
2021/06/08 21:39:36;;;;;;;9.70;3.58;;;;;;;;;;4423887;32;20037;-74
2021/06/08 21:42:03;;;;;;;8.32;3.40;;;;;;;;;;4423806;32;20094;-74
2021/06/08 21:44:29;;;;;;;10.93;3.50;;;;;;;;;;4424527;32;20030;-74
2021/06/08 21:46:55;;;;;;;6.45;4.07;;;;;;;;;;4422831;32;20049;-73
2021/06/08 21:49:21;;;;;;;4.28;3.22;;;;;;;;;;4422115;32;20093;-73
2021/06/08 21:51:47;;;;;;;5.45;3.17;;;;;;;;;;4419734;32;20528;-73
2021/06/08 21:54:14;;;;;;;5.70;3.65;;;;;;;;;;4418706;32;20037;-74
2021/06/08 21:56:40;;;;;;;10.27;3.62;;;;;;;;;;4418216;32;20161;-74
2021/06/08 21:59:08;;;;;;;5.40;3.10;;;;;;;;;;4422728;32;20045;-74
2021/06/08 22:01:34;;;;;;;5.12;3.20;;;;;;;;;;4424213;32;20455;-74
2021/06/08 22:04:00;;;;;;;5.47;3.28;;;;;;;;;;4411871;32;20453;-74
2021/06/08 22:06:27;;;;;;;4.15;3.20;;;;;;;;;;4410900;32;20304;-74
2021/06/08 22:08:53;;;;;;;4.20;3.10;;;;;;;;;;4407729;32;20049;-74
2021/06/08 22:11:19;;;;;;;6.00;3.00;;;;;;;;;;4410113;32;20052;-74
2021/06/08 22:13:45;;;;;;;6.00;2.97;;;;;;;;;;4410234;32;20034;-75
2021/06/08 22:16:12;;;;;;;4.45;3.15;;;;;;;;;;4413319;32;20104;-73
2021/06/08 22:18:38;;;;;;;11.90;3.40;;;;;;;;;;4424317;32;20105;-73
2021/06/08 22:21:04;;;;;;;7.12;3.30;;;;;;;;;;4423903;32;20033;-75
2021/06/08 22:23:31;;;;;;;4.57;3.00;;;;;;;;;;4423017;32;20066;-73
2021/06/08 22:25:57;;;;;;;5.18;2.72;;;;;;;;;;4417538;32;20038;-74
2021/06/08 22:28:23;;;;;;;5.00;3.37;;;;;;;;;;4414334;32;20042;-74
2021/06/08 22:30:49;;;;;;;3.90;3.08;;;;;;;;;;4424367;32;20095;-74
2021/06/08 22:33:16;;;;;;;5.90;3.47;;;;;;;;;;4432015;32;20391;-74